TAM3373 SBGO-SBGR
Flight info
| Callsign | TAM3373 |
|---|---|
| Flight time | 1h 6m |
| Altitude | 36000 |
| Route | ESBOD DCT UPONA DCT OBLUG/N0466F350 DCT ZARES |
| Aircraft | A21N/M-SDE2E3FGHIRWXY/LB1 |
Departure
| Time | 2026-05-09 01:36 |
|---|---|
| Airport | Santa Genoveva International Airport (SBGO) |
Arrival
| Time | 2026-05-09 02:42 |
|---|---|
| Airport | São Paulo/Guarulhos–Governor André Franco Montoro International Airport (SBGR) |
| Time | Latitude | Longitude | Altitude | Speed | Heading |
|---|---|---|---|---|---|
| 2026-05-09 01:23 | -16.63007 | -49.21513 | 2467 ft | 0 kts | 57° |
| 2026-05-09 01:27 | -16.63010 | -49.21518 | 2470 ft | 3 kts | 57° |
| 2026-05-09 01:27 | -16.63021 | -49.21535 | 2471 ft | 3 kts | 57° |
| 2026-05-09 01:27 | -16.63032 | -49.21551 | 2467 ft | 3 kts | 45° |
| 2026-05-09 01:28 | -16.63047 | -49.21562 | 2470 ft | 3 kts | 13° |
| 2026-05-09 01:28 | -16.63058 | -49.21563 | 2468 ft | 3 kts | 342° |
| 2026-05-09 01:28 | -16.63076 | -49.21549 | 2473 ft | 3 kts | 310° |
| 2026-05-09 01:28 | -16.63089 | -49.21533 | 2467 ft | 3 kts | 309° |
| 2026-05-09 01:29 | -16.63096 | -49.21524 | 2467 ft | 0 kts | 314° |
| 2026-05-09 01:30 | -16.63083 | -49.21538 | 2467 ft | 9 kts | 317° |
| 2026-05-09 01:31 | -16.63015 | -49.21588 | 2467 ft | 7 kts | 331° |
| 2026-05-09 01:31 | -16.62958 | -49.21616 | 2470 ft | 11 kts | 337° |
| 2026-05-09 01:31 | -16.62921 | -49.21689 | 2470 ft | 15 kts | 258° |
| 2026-05-09 01:31 | -16.62937 | -49.21764 | 2466 ft | 16 kts | 257° |
| 2026-05-09 01:32 | -16.62963 | -49.21883 | 2460 ft | 17 kts | 257° |
| 2026-05-09 01:32 | -16.62994 | -49.22053 | 2448 ft | 19 kts | 270° |
| 2026-05-09 01:32 | -16.62955 | -49.22200 | 2457 ft | 23 kts | 301° |
| 2026-05-09 01:32 | -16.62898 | -49.22299 | 2464 ft | 24 kts | 301° |
| 2026-05-09 01:33 | -16.62808 | -49.22458 | 2465 ft | 27 kts | 300° |
| 2026-05-09 01:33 | -16.62712 | -49.22630 | 2467 ft | 28 kts | 300° |
| 2026-05-09 01:33 | -16.62611 | -49.22810 | 2468 ft | 29 kts | 300° |
| 2026-05-09 01:33 | -16.62572 | -49.22904 | 2466 ft | 3 kts | 239° |
| 2026-05-09 01:34 | -16.62591 | -49.22926 | 2461 ft | 5 kts | 217° |
| 2026-05-09 01:34 | -16.62628 | -49.22950 | 2460 ft | 8 kts | 211° |
| 2026-05-09 01:34 | -16.62700 | -49.22977 | 2461 ft | 15 kts | 159° |
| 2026-05-09 01:34 | -16.62747 | -49.22908 | 2462 ft | 9 kts | 119° |
| 2026-05-09 01:35 | -16.62787 | -49.22835 | 2463 ft | 26 kts | 121° |
| 2026-05-09 01:35 | -16.63007 | -49.22444 | 2464 ft | 98 kts | 120° |
| 2026-05-09 01:35 | -16.63454 | -49.21650 | 2464 ft | 149 kts | 120° |
| 2026-05-09 01:35 | -16.63997 | -49.20682 | 2741 ft | 154 kts | 120° |
| 2026-05-09 01:36 | -16.64556 | -49.19739 | 3187 ft | 154 kts | 121° |
| 2026-05-09 01:36 | -16.65131 | -49.18734 | 3469 ft | 166 kts | 118° |
| 2026-05-09 01:36 | -16.65706 | -49.17685 | 3915 ft | 165 kts | 117° |
| 2026-05-09 01:36 | -16.66295 | -49.16624 | 4253 ft | 177 kts | 117° |
| 2026-05-09 01:37 | -16.67072 | -49.15548 | 4586 ft | 197 kts | 139° |
| 2026-05-09 01:37 | -16.68385 | -49.15021 | 4986 ft | 214 kts | 175° |
| 2026-05-09 01:37 | -16.69855 | -49.15417 | 5396 ft | 229 kts | 213° |
| 2026-05-09 01:37 | -16.70891 | -49.16706 | 5856 ft | 240 kts | 245° |
| 2026-05-09 01:38 | -16.71664 | -49.18330 | 6241 ft | 261 kts | 239° |
| 2026-05-09 01:38 | -16.72998 | -49.19697 | 6618 ft | 282 kts | 207° |
| 2026-05-09 01:38 | -16.74870 | -49.20375 | 7247 ft | 289 kts | 194° |
| 2026-05-09 01:38 | -16.76794 | -49.20923 | 8020 ft | 291 kts | 195° |
| 2026-05-09 01:39 | -16.78746 | -49.21537 | 8840 ft | 294 kts | 198° |
| 2026-05-09 01:39 | -16.80688 | -49.22207 | 9672 ft | 296 kts | 199° |
| 2026-05-09 01:39 | -16.82643 | -49.22913 | 10444 ft | 298 kts | 199° |
| 2026-05-09 01:39 | -16.84613 | -49.23642 | 11144 ft | 302 kts | 200° |
| 2026-05-09 01:40 | -16.86646 | -49.24252 | 11810 ft | 307 kts | 186° |
| 2026-05-09 01:40 | -16.88800 | -49.24050 | 12253 ft | 320 kts | 163° |
| 2026-05-09 01:40 | -16.90956 | -49.23243 | 12568 ft | 338 kts | 158° |
| 2026-05-09 01:40 | -16.93212 | -49.22320 | 12842 ft | 357 kts | 158° |
| 2026-05-09 01:41 | -16.95584 | -49.21372 | 13105 ft | 375 kts | 159° |
| 2026-05-09 01:41 | -16.98086 | -49.20402 | 13351 ft | 392 kts | 159° |
| 2026-05-09 01:41 | -17.00700 | -49.19408 | 13589 ft | 407 kts | 159° |
| 2026-05-09 01:41 | -17.03413 | -49.18383 | 13806 ft | 421 kts | 160° |
| 2026-05-09 01:42 | -17.06176 | -49.17345 | 14049 ft | 431 kts | 160° |
| 2026-05-09 01:42 | -17.09055 | -49.16262 | 14497 ft | 435 kts | 160° |
| 2026-05-09 01:42 | -17.11875 | -49.15202 | 15012 ft | 438 kts | 160° |
| 2026-05-09 01:42 | -17.14748 | -49.14121 | 15573 ft | 441 kts | 160° |
| 2026-05-09 01:43 | -17.17644 | -49.13030 | 16087 ft | 444 kts | 160° |
| 2026-05-09 01:43 | -17.20564 | -49.11929 | 16568 ft | 447 kts | 160° |
| 2026-05-09 01:43 | -17.23493 | -49.10823 | 17022 ft | 449 kts | 160° |
| 2026-05-09 01:43 | -17.26448 | -49.09706 | 17474 ft | 452 kts | 160° |
| 2026-05-09 01:44 | -17.29458 | -49.08718 | 17905 ft | 455 kts | 167° |
| 2026-05-09 01:44 | -17.32605 | -49.08270 | 18326 ft | 458 kts | 176° |
| 2026-05-09 01:44 | -17.35792 | -49.08116 | 18671 ft | 460 kts | 178° |
| 2026-05-09 01:44 | -17.39002 | -49.07997 | 19029 ft | 463 kts | 178° |
| 2026-05-09 01:45 | -17.42233 | -49.07872 | 19385 ft | 466 kts | 178° |
| 2026-05-09 01:45 | -17.45480 | -49.07736 | 19761 ft | 469 kts | 178° |
| 2026-05-09 01:45 | -17.48745 | -49.07596 | 20132 ft | 471 kts | 178° |
| 2026-05-09 01:45 | -17.52035 | -49.07451 | 20493 ft | 474 kts | 178° |
| 2026-05-09 01:46 | -17.55336 | -49.07303 | 20868 ft | 477 kts | 178° |
| 2026-05-09 01:46 | -17.58659 | -49.07153 | 21301 ft | 480 kts | 178° |
| 2026-05-09 01:46 | -17.62005 | -49.07003 | 21763 ft | 483 kts | 178° |
| 2026-05-09 01:46 | -17.65381 | -49.06852 | 22201 ft | 486 kts | 179° |
| 2026-05-09 01:47 | -17.68780 | -49.06701 | 22610 ft | 489 kts | 179° |
| 2026-05-09 01:47 | -17.72190 | -49.06549 | 22996 ft | 492 kts | 179° |
| 2026-05-09 01:47 | -17.75581 | -49.06400 | 23361 ft | 495 kts | 179° |
| 2026-05-09 01:47 | -17.79039 | -49.06247 | 23693 ft | 498 kts | 179° |
| 2026-05-09 01:48 | -17.82506 | -49.06094 | 23985 ft | 500 kts | 179° |
| 2026-05-09 01:48 | -17.85994 | -49.05941 | 24266 ft | 502 kts | 179° |
| 2026-05-09 01:48 | -17.89486 | -49.05787 | 24621 ft | 502 kts | 179° |
| 2026-05-09 01:48 | -17.92971 | -49.05632 | 24984 ft | 501 kts | 179° |
| 2026-05-09 01:49 | -17.96451 | -49.05476 | 25388 ft | 500 kts | 179° |
| 2026-05-09 01:49 | -17.99931 | -49.05323 | 25778 ft | 499 kts | 179° |
| 2026-05-09 01:49 | -18.03406 | -49.05169 | 26187 ft | 498 kts | 179° |
| 2026-05-09 01:49 | -18.06873 | -49.05014 | 26597 ft | 497 kts | 180° |
| 2026-05-09 01:50 | -18.10328 | -49.04859 | 27009 ft | 496 kts | 180° |
| 2026-05-09 01:50 | -18.13732 | -49.04707 | 27406 ft | 495 kts | 180° |
| 2026-05-09 01:50 | -18.17180 | -49.04554 | 27807 ft | 495 kts | 180° |
| 2026-05-09 01:50 | -18.20614 | -49.04404 | 28212 ft | 494 kts | 180° |
| 2026-05-09 01:51 | -18.24049 | -49.04256 | 28608 ft | 494 kts | 180° |
| 2026-05-09 01:51 | -18.27478 | -49.04105 | 29029 ft | 492 kts | 180° |
| 2026-05-09 01:51 | -18.30903 | -49.03953 | 29430 ft | 492 kts | 180° |
| 2026-05-09 01:51 | -18.34316 | -49.03801 | 29811 ft | 491 kts | 180° |
| 2026-05-09 01:52 | -18.37730 | -49.03647 | 30183 ft | 490 kts | 181° |
| 2026-05-09 01:52 | -18.41135 | -49.03492 | 30531 ft | 489 kts | 181° |
| 2026-05-09 01:52 | -18.44525 | -49.03340 | 30920 ft | 486 kts | 181° |
| 2026-05-09 01:52 | -18.47894 | -49.03192 | 31312 ft | 484 kts | 181° |
| 2026-05-09 01:53 | -18.51253 | -49.03044 | 31683 ft | 481 kts | 181° |
| 2026-05-09 01:53 | -18.54589 | -49.02894 | 32045 ft | 479 kts | 181° |
| 2026-05-09 01:53 | -18.57916 | -49.02745 | 32415 ft | 477 kts | 181° |
| 2026-05-09 01:53 | -18.61227 | -49.02594 | 32783 ft | 475 kts | 181° |
| 2026-05-09 01:54 | -18.64477 | -49.02446 | 33137 ft | 473 kts | 182° |
| 2026-05-09 01:54 | -18.67757 | -49.02298 | 33461 ft | 471 kts | 182° |
| 2026-05-09 01:54 | -18.71018 | -49.02153 | 33799 ft | 469 kts | 182° |
| 2026-05-09 01:54 | -18.74055 | -49.02020 | 34080 ft | 467 kts | 182° |
| 2026-05-09 01:55 | -18.77295 | -49.01875 | 34317 ft | 465 kts | 182° |
| 2026-05-09 01:55 | -18.80534 | -49.01730 | 34541 ft | 465 kts | 182° |
| 2026-05-09 01:55 | -18.83765 | -49.01585 | 34744 ft | 464 kts | 182° |
| 2026-05-09 01:55 | -18.86988 | -49.01441 | 34934 ft | 464 kts | 182° |
| 2026-05-09 01:56 | -18.90213 | -49.01296 | 35137 ft | 463 kts | 182° |
| 2026-05-09 01:56 | -18.93438 | -49.01152 | 35300 ft | 463 kts | 182° |
| 2026-05-09 01:56 | -18.96660 | -49.01009 | 35464 ft | 463 kts | 182° |
| 2026-05-09 01:56 | -18.99884 | -49.00864 | 35633 ft | 463 kts | 182° |
| 2026-05-09 01:57 | -19.03105 | -49.00720 | 35816 ft | 463 kts | 182° |
| 2026-05-09 01:57 | -19.06321 | -49.00576 | 35990 ft | 462 kts | 182° |
| 2026-05-09 01:57 | -19.12740 | -49.00286 | 36044 ft | 468 kts | 182° |
| 2026-05-09 01:58 | -19.19291 | -48.99996 | 36023 ft | 472 kts | 183° |
| 2026-05-09 01:58 | -19.25857 | -48.99714 | 36011 ft | 472 kts | 183° |
| 2026-05-09 01:59 | -19.32423 | -48.99422 | 36008 ft | 472 kts | 183° |
| 2026-05-09 01:59 | -19.38980 | -48.98906 | 36001 ft | 480 kts | 173° |
| 2026-05-09 02:00 | -19.45449 | -48.96946 | 36012 ft | 485 kts | 168° |
| 2026-05-09 02:00 | -19.51929 | -48.94935 | 36009 ft | 484 kts | 169° |
| 2026-05-09 02:01 | -19.58362 | -48.93018 | 36004 ft | 475 kts | 169° |
| 2026-05-09 02:01 | -19.64669 | -48.91133 | 36005 ft | 474 kts | 169° |
| 2026-05-09 02:02 | -19.71015 | -48.89234 | 36003 ft | 474 kts | 169° |
| 2026-05-09 02:02 | -19.77355 | -48.87332 | 36002 ft | 474 kts | 169° |
| 2026-05-09 02:03 | -19.83702 | -48.85430 | 35998 ft | 473 kts | 169° |
| 2026-05-09 02:03 | -19.90048 | -48.83516 | 35995 ft | 475 kts | 169° |
| 2026-05-09 02:04 | -19.96416 | -48.81601 | 35992 ft | 475 kts | 169° |
| 2026-05-09 02:04 | -20.02778 | -48.79676 | 35992 ft | 475 kts | 169° |
| 2026-05-09 02:05 | -20.09140 | -48.77747 | 35986 ft | 475 kts | 169° |
| 2026-05-09 02:05 | -20.15510 | -48.75830 | 35988 ft | 476 kts | 169° |
| 2026-05-09 02:06 | -20.21845 | -48.73919 | 35984 ft | 475 kts | 170° |
| 2026-05-09 02:07 | -20.31406 | -48.71033 | 35986 ft | 476 kts | 169° |
| 2026-05-09 02:07 | -20.37781 | -48.69107 | 35987 ft | 477 kts | 169° |
| 2026-05-09 02:08 | -20.44178 | -48.67163 | 35983 ft | 478 kts | 169° |
| 2026-05-09 02:08 | -20.50571 | -48.65218 | 35984 ft | 478 kts | 169° |
| 2026-05-09 02:09 | -20.56951 | -48.63282 | 35998 ft | 476 kts | 170° |
| 2026-05-09 02:09 | -20.63352 | -48.61338 | 35985 ft | 479 kts | 170° |
| 2026-05-09 02:10 | -20.69766 | -48.59387 | 35985 ft | 480 kts | 170° |
| 2026-05-09 02:10 | -20.76184 | -48.57427 | 35984 ft | 480 kts | 170° |
| 2026-05-09 02:11 | -20.82569 | -48.55479 | 35993 ft | 480 kts | 170° |
| 2026-05-09 02:11 | -20.88997 | -48.53517 | 35988 ft | 481 kts | 170° |
| 2026-05-09 02:12 | -20.95479 | -48.51542 | 35990 ft | 487 kts | 170° |
| 2026-05-09 02:12 | -21.02030 | -48.49540 | 35984 ft | 491 kts | 170° |
| 2026-05-09 02:13 | -21.08612 | -48.47523 | 35983 ft | 492 kts | 170° |
| 2026-05-09 02:13 | -21.15205 | -48.45509 | 35982 ft | 492 kts | 170° |
| 2026-05-09 02:14 | -21.21791 | -48.43502 | 35981 ft | 492 kts | 170° |
| 2026-05-09 02:14 | -21.28362 | -48.41482 | 35978 ft | 492 kts | 169° |
| 2026-05-09 02:15 | -21.34942 | -48.39454 | 35981 ft | 492 kts | 170° |
| 2026-05-09 02:15 | -21.41531 | -48.37431 | 35981 ft | 493 kts | 170° |
| 2026-05-09 02:16 | -21.48114 | -48.35404 | 35972 ft | 492 kts | 170° |
| 2026-05-09 02:16 | -21.54722 | -48.33371 | 35978 ft | 495 kts | 170° |
| 2026-05-09 02:17 | -21.61342 | -48.31333 | 35979 ft | 495 kts | 169° |
| 2026-05-09 02:17 | -21.67917 | -48.29306 | 35973 ft | 494 kts | 170° |
| 2026-05-09 02:18 | -21.74544 | -48.27262 | 35977 ft | 496 kts | 170° |
| 2026-05-09 02:18 | -21.81179 | -48.25217 | 35973 ft | 496 kts | 169° |
| 2026-05-09 02:19 | -21.87821 | -48.23156 | 35974 ft | 496 kts | 169° |
| 2026-05-09 02:19 | -21.93339 | -48.21452 | 35976 ft | 495 kts | 170° |
| 2026-05-09 02:20 | -21.99964 | -48.19401 | 35978 ft | 495 kts | 169° |
| 2026-05-09 02:20 | -22.06588 | -48.17344 | 35977 ft | 495 kts | 169° |
| 2026-05-09 02:21 | -22.13211 | -48.15286 | 35974 ft | 495 kts | 169° |
| 2026-05-09 02:21 | -22.19848 | -48.13220 | 35982 ft | 497 kts | 170° |
| 2026-05-09 02:22 | -22.26495 | -48.11152 | 35980 ft | 497 kts | 170° |
| 2026-05-09 02:22 | -22.33150 | -48.09084 | 35976 ft | 497 kts | 170° |
| 2026-05-09 02:23 | -22.39806 | -48.07010 | 35971 ft | 499 kts | 170° |
| 2026-05-09 02:23 | -22.46461 | -48.04927 | 35677 ft | 492 kts | 170° |
| 2026-05-09 02:23 | -22.49737 | -48.03905 | 35336 ft | 490 kts | 170° |
| 2026-05-09 02:24 | -22.53014 | -48.02885 | 35065 ft | 491 kts | 169° |
| 2026-05-09 02:24 | -22.56298 | -48.01780 | 34811 ft | 497 kts | 163° |
| 2026-05-09 02:24 | -22.59325 | -47.99983 | 34573 ft | 511 kts | 149° |
| 2026-05-09 02:24 | -22.62070 | -47.97467 | 34344 ft | 524 kts | 137° |
| 2026-05-09 02:25 | -22.64503 | -47.94503 | 34115 ft | 528 kts | 131° |
| 2026-05-09 02:25 | -22.66694 | -47.91367 | 33645 ft | 521 kts | 127° |
| 2026-05-09 02:25 | -22.68792 | -47.88125 | 32459 ft | 527 kts | 126° |
| 2026-05-09 02:25 | -22.70891 | -47.84847 | 31376 ft | 530 kts | 125° |
| 2026-05-09 02:26 | -22.72998 | -47.81557 | 30334 ft | 531 kts | 125° |
| 2026-05-09 02:26 | -22.75113 | -47.78271 | 29234 ft | 531 kts | 125° |
| 2026-05-09 02:26 | -22.77228 | -47.74993 | 28067 ft | 531 kts | 125° |
| 2026-05-09 02:26 | -22.79338 | -47.71703 | 26816 ft | 533 kts | 125° |
| 2026-05-09 02:27 | -22.81456 | -47.68401 | 25571 ft | 534 kts | 125° |
| 2026-05-09 02:27 | -22.83582 | -47.65090 | 24391 ft | 536 kts | 125° |
| 2026-05-09 02:27 | -22.85709 | -47.61774 | 23376 ft | 534 kts | 125° |
| 2026-05-09 02:27 | -22.87820 | -47.58490 | 22564 ft | 526 kts | 124° |
| 2026-05-09 02:28 | -22.89891 | -47.55266 | 21871 ft | 514 kts | 124° |
| 2026-05-09 02:28 | -22.91910 | -47.52110 | 21284 ft | 505 kts | 124° |
| 2026-05-09 02:28 | -22.93865 | -47.49050 | 20614 ft | 496 kts | 124° |
| 2026-05-09 02:28 | -22.95816 | -47.45994 | 19902 ft | 488 kts | 124° |
| 2026-05-09 02:29 | -22.97732 | -47.42997 | 19198 ft | 480 kts | 124° |
| 2026-05-09 02:29 | -22.99619 | -47.40045 | 18511 ft | 472 kts | 124° |
| 2026-05-09 02:29 | -23.01483 | -47.37133 | 17703 ft | 466 kts | 124° |
| 2026-05-09 02:29 | -23.03332 | -47.34246 | 16973 ft | 464 kts | 124° |
| 2026-05-09 02:30 | -23.05161 | -47.31372 | 16313 ft | 460 kts | 124° |
| 2026-05-09 02:30 | -23.06975 | -47.28520 | 15696 ft | 457 kts | 124° |
| 2026-05-09 02:30 | -23.08779 | -47.25687 | 15084 ft | 454 kts | 124° |
| 2026-05-09 02:30 | -23.10567 | -47.22886 | 14544 ft | 449 kts | 124° |
| 2026-05-09 02:31 | -23.12330 | -47.20109 | 14058 ft | 443 kts | 124° |
| 2026-05-09 02:31 | -23.14070 | -47.17381 | 13547 ft | 437 kts | 124° |
| 2026-05-09 02:31 | -23.15766 | -47.14701 | 12946 ft | 433 kts | 123° |
| 2026-05-09 02:31 | -23.17436 | -47.11976 | 12335 ft | 430 kts | 122° |
| 2026-05-09 02:32 | -23.19059 | -47.09298 | 11855 ft | 418 kts | 122° |
| 2026-05-09 02:32 | -23.20640 | -47.06708 | 11532 ft | 403 kts | 122° |
| 2026-05-09 02:32 | -23.22163 | -47.04223 | 11293 ft | 388 kts | 122° |
| 2026-05-09 02:32 | -23.23628 | -47.01826 | 11093 ft | 373 kts | 122° |
| 2026-05-09 02:33 | -23.25037 | -46.99517 | 10901 ft | 359 kts | 121° |
| 2026-05-09 02:33 | -23.26397 | -46.97297 | 10661 ft | 345 kts | 121° |
| 2026-05-09 02:33 | -23.27706 | -46.95164 | 10222 ft | 333 kts | 121° |
| 2026-05-09 02:33 | -23.28966 | -46.93103 | 9827 ft | 321 kts | 121° |
| 2026-05-09 02:34 | -23.30186 | -46.91096 | 9242 ft | 316 kts | 120° |
| 2026-05-09 02:34 | -23.31388 | -46.89121 | 8701 ft | 309 kts | 121° |
| 2026-05-09 02:34 | -23.32548 | -46.87223 | 8372 ft | 294 kts | 121° |
| 2026-05-09 02:34 | -23.33653 | -46.85417 | 8045 ft | 280 kts | 120° |
| 2026-05-09 02:35 | -23.34707 | -46.83687 | 7711 ft | 268 kts | 120° |
| 2026-05-09 02:35 | -23.35707 | -46.82042 | 7349 ft | 254 kts | 120° |
| 2026-05-09 02:35 | -23.36665 | -46.80462 | 7004 ft | 244 kts | 119° |
| 2026-05-09 02:35 | -23.37579 | -46.78962 | 6804 ft | 233 kts | 119° |
| 2026-05-09 02:36 | -23.38469 | -46.77498 | 6508 ft | 231 kts | 118° |
| 2026-05-09 02:36 | -23.39357 | -46.76033 | 6146 ft | 232 kts | 119° |
| 2026-05-09 02:36 | -23.40246 | -46.74574 | 5992 ft | 232 kts | 118° |
| 2026-05-09 02:36 | -23.41138 | -46.73104 | 6006 ft | 232 kts | 118° |
| 2026-05-09 02:37 | -23.42027 | -46.71641 | 6011 ft | 234 kts | 118° |
| 2026-05-09 02:37 | -23.42925 | -46.70165 | 5996 ft | 235 kts | 118° |
| 2026-05-09 02:37 | -23.43841 | -46.68705 | 5704 ft | 231 kts | 121° |
| 2026-05-09 02:37 | -23.44721 | -46.67306 | 5345 ft | 227 kts | 122° |
| 2026-05-09 02:38 | -23.45627 | -46.65885 | 5030 ft | 227 kts | 122° |
| 2026-05-09 02:38 | -23.46506 | -46.64478 | 4702 ft | 224 kts | 121° |
| 2026-05-09 02:38 | -23.47286 | -46.63032 | 4489 ft | 218 kts | 107° |
| 2026-05-09 02:38 | -23.47383 | -46.61441 | 4470 ft | 205 kts | 74° |
| 2026-05-09 02:39 | -23.47032 | -46.60047 | 4491 ft | 169 kts | 64° |
| 2026-05-09 02:39 | -23.46687 | -46.58924 | 4370 ft | 151 kts | 61° |
| 2026-05-09 02:39 | -23.46376 | -46.57849 | 4184 ft | 147 kts | 63° |
| 2026-05-09 02:39 | -23.46081 | -46.56782 | 3997 ft | 146 kts | 65° |
| 2026-05-09 02:40 | -23.45794 | -46.55733 | 3820 ft | 144 kts | 66° |
| 2026-05-09 02:40 | -23.45512 | -46.54696 | 3628 ft | 145 kts | 68° |
| 2026-05-09 02:40 | -23.45224 | -46.53639 | 3462 ft | 142 kts | 68° |
| 2026-05-09 02:40 | -23.44941 | -46.52599 | 3286 ft | 145 kts | 69° |
| 2026-05-09 02:41 | -23.44648 | -46.51550 | 3080 ft | 144 kts | 70° |
| 2026-05-09 02:41 | -23.44374 | -46.50512 | 2866 ft | 142 kts | 71° |
| 2026-05-09 02:41 | -23.44091 | -46.49482 | 2647 ft | 142 kts | 69° |
| 2026-05-09 02:41 | -23.43812 | -46.48454 | 2471 ft | 138 kts | 71° |
| 2026-05-09 02:42 | -23.43578 | -46.47586 | 2472 ft | 99 kts | 73° |
| 2026-05-09 02:42 | -23.43435 | -46.47075 | 2472 ft | 49 kts | 66° |
| 2026-05-09 02:42 | -23.43289 | -46.46850 | 2471 ft | 36 kts | 46° |
| 2026-05-09 02:42 | -23.43156 | -46.46717 | 2473 ft | 24 kts | 21° |
| 2026-05-09 02:43 | -23.42994 | -46.46746 | 2473 ft | 25 kts | 343° |
| 2026-05-09 02:43 | -23.42850 | -46.46800 | 2471 ft | 15 kts | 303° |
| 2026-05-09 02:43 | -23.42871 | -46.46920 | 2474 ft | 18 kts | 252° |
| 2026-05-09 02:43 | -23.42909 | -46.47057 | 2473 ft | 20 kts | 253° |
| 2026-05-09 02:44 | -23.42948 | -46.47203 | 2472 ft | 21 kts | 253° |
| 2026-05-09 02:44 | -23.42990 | -46.47358 | 2470 ft | 22 kts | 253° |
| 2026-05-09 02:44 | -23.43036 | -46.47526 | 2471 ft | 24 kts | 253° |
| 2026-05-09 02:44 | -23.43086 | -46.47708 | 2471 ft | 26 kts | 253° |
| 2026-05-09 02:45 | -23.43138 | -46.47903 | 2471 ft | 28 kts | 254° |
| 2026-05-09 02:45 | -23.43194 | -46.48112 | 2474 ft | 30 kts | 254° |
| 2026-05-09 02:45 | -23.43245 | -46.48304 | 2475 ft | 20 kts | 252° |
| 2026-05-09 02:45 | -23.43177 | -46.48406 | 2472 ft | 21 kts | 346° |
| 2026-05-09 02:46 | -23.43029 | -46.48448 | 2470 ft | 23 kts | 352° |
| 2026-05-09 02:46 | -23.42894 | -46.48432 | 2474 ft | 9 kts | 12° |
| 2026-05-09 02:46 | -23.42822 | -46.48427 | 2470 ft | 11 kts | 0° |
| 2026-05-09 02:46 | -23.42750 | -46.48425 | 2475 ft | 4 kts | 13° |
| 2026-05-09 02:47 | -23.42729 | -46.48399 | 2470 ft | 6 kts | 84° |
| 2026-05-09 02:47 | -23.42727 | -46.48381 | 2470 ft | 0 kts | 83° |
| 2026-05-09 02:47 | -23.42727 | -46.48382 | 2470 ft | 0 kts | 84° |